Time,TemperatureF,DewpointF,PressureIn,WindDirection,WindDirectionDegrees,WindSpeedMPH,WindSpeedGustMPH,Humidity,HourlyPrecipIn,Conditions,Clouds,dailyrainin,SolarRadiationWatts/m^2,SoftwareType,DateUTC
2013-01-22 00:02:00,50.0,43.0,-100.00,NE,49,4.0,8.0,76,0.00,,,0.00,0.000000,,2013-01-22 06:02:00,
2013-01-22 00:33:00,48.0,41.0,-100.00,ENE,60,3.0,7.0,78,0.00,,,0.00,0.000000,,2013-01-22 06:33:00,
2013-01-22 00:43:00,48.0,41.0,-100.00,ENE,60,3.0,7.0,78,0.00,,,0.00,0.000000,,2013-01-22 06:43:00,
2013-01-22 00:53:00,48.0,41.0,-100.00,ENE,60,3.0,7.0,78,0.00,,,0.00,0.000000,,2013-01-22 06:53:00,
2013-01-22 01:02:00,48.0,41.0,-100.00,ENE,60,3.0,7.0,78,0.00,,,0.00,0.000000,,2013-01-22 07:02:00,
2013-01-22 01:22:00,47.0,41.0,-100.00,ENE,59,4.0,7.0,80,0.00,,,0.00,0.000000,,2013-01-22 07:22:00,
2013-01-22 01:33:00,47.0,41.0,-100.00,ENE,59,4.0,7.0,80,0.00,,,0.00,0.000000,,2013-01-22 07:33:00,
2013-01-22 01:43:00,47.0,41.0,-100.00,ENE,59,4.0,7.0,80,0.00,,,0.00,0.000000,,2013-01-22 07:43:00,
2013-01-22 01:53:00,47.0,41.0,-100.00,ENE,59,4.0,7.0,80,0.00,,,0.00,0.000000,,2013-01-22 07:53:00,
2013-01-22 02:02:00,47.0,41.0,-100.00,ENE,59,4.0,7.0,80,0.00,,,0.00,0.000000,,2013-01-22 08:02:00,
2013-01-22 02:22:00,45.0,40.0,-100.00,ENE,72,4.0,7.0,83,0.00,,,0.00,0.000000,,2013-01-22 08:22:00,
2013-01-22 02:33:00,45.0,40.0,-100.00,ENE,72,4.0,7.0,83,0.00,,,0.00,0.000000,,2013-01-22 08:33:00,
2013-01-22 02:43:00,45.0,40.0,-100.00,ENE,72,4.0,7.0,83,0.00,,,0.00,0.000000,,2013-01-22 08:43:00,
2013-01-22 02:52:00,45.0,40.0,-100.00,ENE,72,4.0,7.0,83,0.00,,,0.00,0.000000,,2013-01-22 08:52:00,
2013-01-22 03:02:00,45.0,40.0,-100.00,ENE,72,4.0,7.0,83,0.00,,,0.00,0.000000,,2013-01-22 09:02:00,
2013-01-22 03:33:00,44.0,39.0,-100.00,ENE,60,4.0,7.0,84,0.00,,,0.00,0.000000,,2013-01-22 09:33:00,
2013-01-22 03:43:00,44.0,39.0,-100.00,ENE,60,4.0,7.0,84,0.00,,,0.00,0.000000,,2013-01-22 09:43:00,
2013-01-22 03:52:00,44.0,39.0,-100.00,ENE,60,4.0,7.0,84,0.00,,,0.00,0.000000,,2013-01-22 09:52:00,
2013-01-22 04:02:00,44.0,39.0,-100.00,ENE,60,4.0,7.0,84,0.00,,,0.00,0.000000,,2013-01-22 10:02:00,
2013-01-22 04:22:00,43.0,37.0,-100.00,ENE,75,4.0,8.0,79,0.00,,,0.00,0.000000,,2013-01-22 10:22:00,
2013-01-22 04:33:00,43.0,37.0,-100.00,ENE,75,4.0,8.0,79,0.00,,,0.00,0.000000,,2013-01-22 10:33:00,
2013-01-22 04:42:00,43.0,37.0,-100.00,ENE,75,4.0,8.0,79,0.00,,,0.00,0.000000,,2013-01-22 10:42:00,
2013-01-22 04:52:00,43.0,37.0,-100.00,ENE,75,4.0,8.0,79,0.00,,,0.00,0.000000,,2013-01-22 10:52:00,
2013-01-22 05:02:00,43.0,37.0,-100.00,ENE,75,4.0,8.0,79,0.00,,,0.00,0.000000,,2013-01-22 11:02:00,
2013-01-22 05:03:00,42.0,35.0,-100.00,East,93,3.0,7.0,77,0.00,,,0.00,0.000000,,2013-01-22 11:03:00,
2013-01-22 05:33:00,42.0,35.0,-100.00,East,93,3.0,7.0,77,0.00,,,0.00,0.000000,,2013-01-22 11:33:00,
2013-01-22 05:43:00,42.0,35.0,-100.00,East,93,3.0,7.0,77,0.00,,,0.00,0.000000,,2013-01-22 11:43:00,
2013-01-22 05:53:00,42.0,35.0,-100.00,East,93,3.0,7.0,77,0.00,,,0.00,0.000000,,2013-01-22 11:53:00,
2013-01-22 06:03:00,41.0,35.0,-100.00,East,80,4.0,7.0,78,0.00,,,0.00,0.000000,,2013-01-22 12:03:00,
2013-01-22 06:33:00,41.0,35.0,-100.00,East,80,4.0,7.0,78,0.00,,,0.00,0.000000,,2013-01-22 12:33:00,
2013-01-22 06:43:00,41.0,35.0,-100.00,East,80,4.0,7.0,78,0.00,,,0.00,0.000000,,2013-01-22 12:43:00,
2013-01-22 06:53:00,41.0,35.0,-100.00,East,80,4.0,7.0,78,0.00,,,0.00,0.000000,,2013-01-22 12:53:00,
2013-01-22 07:03:00,40.0,34.0,-100.00,ENE,75,3.0,7.0,80,0.00,,,0.00,0.000000,,2013-01-22 13:03:00,
2013-01-22 07:34:00,40.0,34.0,-100.00,ENE,75,3.0,7.0,80,0.00,,,0.00,0.000000,,2013-01-22 13:34:00,
2013-01-22 07:43:00,40.0,34.0,-100.00,ENE,75,3.0,7.0,80,0.00,,,0.00,0.000000,,2013-01-22 13:43:00,
2013-01-22 07:53:00,40.0,34.0,-100.00,ENE,75,3.0,7.0,80,0.00,,,0.00,0.000000,,2013-01-22 13:53:00,
2013-01-22 08:03:00,42.0,35.0,-100.00,ESE,109,3.0,5.0,77,0.00,,,0.00,31.000000,,2013-01-22 14:03:00,
2013-01-22 08:34:00,42.0,35.0,-100.00,ESE,109,3.0,5.0,77,0.00,,,0.00,31.000000,,2013-01-22 14:34:00,
2013-01-22 08:44:00,42.0,35.0,-100.00,ESE,109,3.0,5.0,77,0.00,,,0.00,31.000000,,2013-01-22 14:44:00,
2013-01-22 08:54:00,42.0,35.0,-100.00,ESE,109,3.0,5.0,77,0.00,,,0.00,31.000000,,2013-01-22 14:54:00,
2013-01-22 09:03:00,45.0,36.0,-100.00,East,90,5.0,8.0,70,0.00,,,0.00,199.000000,,2013-01-22 15:03:00,
2013-01-22 09:34:00,45.0,36.0,-100.00,East,90,5.0,8.0,70,0.00,,,0.00,199.000000,,2013-01-22 15:34:00,
2013-01-22 09:44:00,45.0,36.0,-100.00,East,90,5.0,8.0,70,0.00,,,0.00,199.000000,,2013-01-22 15:44:00,
2013-01-22 09:53:00,45.0,36.0,-100.00,East,90,5.0,8.0,70,0.00,,,0.00,199.000000,,2013-01-22 15:53:00,
2013-01-22 10:03:00,49.0,36.0,-100.00,ESE,113,4.0,8.0,61,0.00,,,0.00,398.000000,,2013-01-22 16:03:00,
2013-01-22 10:33:00,49.0,36.0,-100.00,ESE,113,4.0,8.0,61,0.00,,,0.00,398.000000,,2013-01-22 16:33:00,
2013-01-22 10:43:00,49.0,36.0,-100.00,ESE,113,4.0,8.0,61,0.00,,,0.00,398.000000,,2013-01-22 16:43:00,
2013-01-22 10:54:00,49.0,36.0,-100.00,ESE,113,4.0,8.0,61,0.00,,,0.00,398.000000,,2013-01-22 16:54:00,
2013-01-22 11:03:00,55.0,40.0,-100.00,South,182,3.0,7.0,57,0.00,,,0.00,562.000000,,2013-01-22 17:03:00,
2013-01-22 11:35:00,55.0,40.0,-100.00,South,182,3.0,7.0,57,0.00,,,0.00,562.000000,,2013-01-22 17:35:00,
2013-01-22 11:44:00,55.0,40.0,-100.00,South,182,3.0,7.0,57,0.00,,,0.00,562.000000,,2013-01-22 17:44:00,
2013-01-22 11:54:00,55.0,40.0,-100.00,South,182,3.0,7.0,57,0.00,,,0.00,562.000000,,2013-01-22 17:54:00,
2013-01-22 12:03:00,60.0,43.0,-100.00,South,181,3.0,7.0,54,0.00,,,0.00,669.000000,,2013-01-22 18:03:00,
2013-01-22 12:34:00,60.0,43.0,-100.00,South,181,3.0,7.0,54,0.00,,,0.00,669.000000,,2013-01-22 18:34:00,
2013-01-22 12:44:00,60.0,43.0,-100.00,South,181,3.0,7.0,54,0.00,,,0.00,669.000000,,2013-01-22 18:44:00,
2013-01-22 12:54:00,60.0,43.0,-100.00,South,181,3.0,7.0,54,0.00,,,0.00,669.000000,,2013-01-22 18:54:00,
2013-01-22 13:03:00,64.0,45.0,-100.00,SSW,206,4.0,9.0,50,0.00,,,0.00,712.000000,,2013-01-22 19:03:00,
2013-01-22 13:34:00,64.0,45.0,-100.00,SSW,206,4.0,9.0,50,0.00,,,0.00,712.000000,,2013-01-22 19:34:00,
2013-01-22 13:43:00,64.0,45.0,-100.00,SSW,206,4.0,9.0,50,0.00,,,0.00,712.000000,,2013-01-22 19:43:00,
2013-01-22 13:54:00,64.0,45.0,-100.00,SSW,206,4.0,9.0,50,0.00,,,0.00,712.000000,,2013-01-22 19:54:00,
2013-01-22 14:03:00,68.0,46.0,-100.00,SW,227,5.0,9.0,46,0.00,,,0.00,679.000000,,2013-01-22 20:03:00,
2013-01-22 14:34:00,68.0,46.0,-100.00,SW,227,5.0,9.0,46,0.00,,,0.00,679.000000,,2013-01-22 20:34:00,
2013-01-22 14:43:00,68.0,46.0,-100.00,SW,227,5.0,9.0,46,0.00,,,0.00,679.000000,,2013-01-22 20:43:00,
2013-01-22 14:53:00,68.0,46.0,-100.00,SW,227,5.0,9.0,46,0.00,,,0.00,679.000000,,2013-01-22 20:53:00,
2013-01-22 15:03:00,69.0,47.0,-100.00,WSW,257,4.0,11.0,46,0.00,,,0.00,578.000000,,2013-01-22 21:03:00,
2013-01-22 15:34:00,69.0,47.0,-100.00,WSW,257,4.0,11.0,46,0.00,,,0.00,578.000000,,2013-01-22 21:34:00,
2013-01-22 15:43:00,69.0,47.0,-100.00,WSW,257,4.0,11.0,46,0.00,,,0.00,578.000000,,2013-01-22 21:43:00,
2013-01-22 15:53:00,69.0,47.0,-100.00,WSW,257,4.0,11.0,46,0.00,,,0.00,578.000000,,2013-01-22 21:53:00,
2013-01-22 16:03:00,70.0,48.0,-100.00,West,264,3.0,7.0,46,0.00,,,0.00,402.000000,,2013-01-22 22:03:00,
2013-01-22 16:33:00,70.0,48.0,-100.00,West,264,3.0,7.0,46,0.00,,,0.00,402.000000,,2013-01-22 22:33:00,
2013-01-22 16:43:00,70.0,48.0,-100.00,West,264,3.0,7.0,46,0.00,,,0.00,402.000000,,2013-01-22 22:43:00,
2013-01-22 16:53:00,70.0,48.0,-100.00,West,264,3.0,7.0,46,0.00,,,0.00,402.000000,,2013-01-22 22:53:00,
2013-01-22 17:03:00,66.0,47.0,-100.00,South,188,3.0,7.0,50,0.00,,,0.00,109.000000,,2013-01-22 23:03:00,
2013-01-22 17:24:00,66.0,47.0,-100.00,South,188,3.0,7.0,50,0.00,,,0.00,109.000000,,2013-01-22 23:24:00,
2013-01-22 17:33:00,66.0,47.0,-100.00,South,188,3.0,7.0,50,0.00,,,0.00,109.000000,,2013-01-22 23:33:00,
2013-01-22 17:43:00,66.0,47.0,-100.00,South,188,3.0,7.0,50,0.00,,,0.00,109.000000,,2013-01-22 23:43:00,
2013-01-22 17:53:00,66.0,47.0,-100.00,South,188,3.0,7.0,50,0.00,,,0.00,109.000000,,2013-01-22 23:53:00,
2013-01-22 18:03:00,61.0,47.0,-100.00,SSW,209,0.0,5.0,60,0.00,,,0.00,16.000000,,2013-01-23 00:03:00,
2013-01-22 18:23:00,61.0,47.0,-100.00,SSW,209,0.0,5.0,60,0.00,,,0.00,16.000000,,2013-01-23 00:23:00,
2013-01-22 18:33:00,61.0,47.0,-100.00,SSW,209,0.0,5.0,60,0.00,,,0.00,16.000000,,2013-01-23 00:33:00,
2013-01-22 18:43:00,61.0,47.0,-100.00,SSW,209,0.0,5.0,60,0.00,,,0.00,16.000000,,2013-01-23 00:43:00,
2013-01-22 18:52:00,61.0,47.0,-100.00,SSW,209,0.0,5.0,60,0.00,,,0.00,16.000000,,2013-01-23 00:52:00,
2013-01-22 19:03:00,55.0,48.0,-100.00,SE,127,0.0,0.0,76,0.00,,,0.00,0.000000,,2013-01-23 01:03:00,
2013-01-22 19:33:00,55.0,48.0,-100.00,SE,127,0.0,0.0,76,0.00,,,0.00,0.000000,,2013-01-23 01:33:00,
2013-01-22 19:43:00,55.0,48.0,-100.00,SE,127,0.0,0.0,76,0.00,,,0.00,0.000000,,2013-01-23 01:43:00,
2013-01-22 19:53:00,55.0,48.0,-100.00,SE,127,0.0,0.0,76,0.00,,,0.00,0.000000,,2013-01-23 01:53:00,
2013-01-22 20:03:00,52.0,49.0,-100.00,SE,129,0.0,0.0,89,0.00,,,0.00,0.000000,,2013-01-23 02:03:00,
2013-01-22 20:23:00,52.0,49.0,-100.00,SE,129,0.0,0.0,89,0.00,,,0.00,0.000000,,2013-01-23 02:23:00,
2013-01-22 20:33:00,52.0,49.0,-100.00,SE,129,0.0,0.0,89,0.00,,,0.00,0.000000,,2013-01-23 02:33:00,
2013-01-22 20:43:00,52.0,49.0,-100.00,SE,129,0.0,0.0,89,0.00,,,0.00,0.000000,,2013-01-23 02:43:00,
2013-01-22 20:53:00,52.0,49.0,-100.00,SE,129,0.0,0.0,89,0.00,,,0.00,0.000000,,2013-01-23 02:53:00,
2013-01-22 21:03:00,49.0,47.0,-100.00,West,277,0.0,0.0,92,0.00,,,0.00,0.000000,,2013-01-23 03:03:00,
2013-01-22 21:33:00,49.0,47.0,-100.00,West,277,0.0,0.0,92,0.00,,,0.00,0.000000,,2013-01-23 03:33:00,
2013-01-22 21:43:00,49.0,47.0,-100.00,West,277,0.0,0.0,92,0.00,,,0.00,0.000000,,2013-01-23 03:43:00,
2013-01-22 21:53:00,49.0,47.0,-100.00,West,277,0.0,0.0,92,0.00,,,0.00,0.000000,,2013-01-23 03:53:00,
2013-01-22 22:03:00,48.0,46.0,-100.00,NW,316,0.0,0.0,94,0.00,,,0.00,0.000000,,2013-01-23 04:03:00,
2013-01-22 22:23:00,48.0,46.0,-100.00,NW,316,0.0,0.0,94,0.00,,,0.00,0.000000,,2013-01-23 04:23:00,
2013-01-22 22:33:00,48.0,46.0,-100.00,NW,316,0.0,0.0,94,0.00,,,0.00,0.000000,,2013-01-23 04:33:00,
2013-01-22 22:43:00,48.0,46.0,-100.00,NW,316,0.0,0.0,94,0.00,,,0.00,0.000000,,2013-01-23 04:43:00,
2013-01-22 22:53:00,48.0,46.0,-100.00,NW,316,0.0,0.0,94,0.00,,,0.00,0.000000,,2013-01-23 04:53:00,
2013-01-22 23:33:00,47.0,46.0,-100.00,South,185,1.0,2.0,96,0.00,,,0.00,0.000000,,2013-01-23 05:33:00,
2013-01-22 23:43:00,47.0,46.0,-100.00,South,185,1.0,2.0,96,0.00,,,0.00,0.000000,,2013-01-23 05:43:00,
2013-01-22 23:53:00,47.0,46.0,-100.00,South,185,1.0,2.0,96,0.00,,,0.00,0.000000,,2013-01-23 05:53:00,